Huvudsida
METAR-TAF:

METAR-TAF

Flygplatser :

Sir Seretse Khama International Airport

Gaborone, Botswana

latitud: 24-13S, longitud: 025-55E, höjd: 1005 m

Aktuellt väderrapport

Denna rapport gjordes för 1 timme och 19 minuter sedan, klockan 07:00 UTC
Vind 2 kt varierande vindriktning
Temperatur 14°C
Fuktighet 63%
Tryck 1031 hPa
Sikt 10 km eller mer
Inga moln under 1 500 m eller inga cumulonimbus

METAR: FBSK 250700Z VRB02KT CAVOK 14/07 Q1031 NOSIG

Tid: 10:19 (08:19 UTC)

Väderprognos

Denna rapport gjordes för 4 timmar och 19 minuter sedan, klockan 04:00 UTC
Prognos gäller från 25 kl. 06 UTC till 26 kl. 12 UTC
Vind 3 kt varierande vindriktning
Sikt 10 km eller mer
Inga moln under 1 500 m eller inga cumulonimbus
Blir
från 26 kl. 03 UTC till 26 kl. 05 UTC
Vind 4 kt från ost

TAF: FBSK 250400Z 2506/2612 VRB03KT CAVOK BECMG 2603/2605 10004KT

Aktuella väderrapporter och prognoser från 4000 flygplatser (METAR- och TAF-rapporter).

De tillgängliga stationerna syns som gula och röda prickar på kartan.

För musen över prickarna för att se namnen på stationerna.

Klicka sedan för att få väderrapporter och prognoser.

För att ändra kartan: Klicka på de gröna knapparna med ett svart kors på för att zooma in; den gröna knappen med ett streck på för att zooma ut; eller på de gröna pilarna för angränsande kartor.


METAR-TAF: